Time;durP1;ratioP1;P1;durP2;ratioP2;P2;SDS_P1;SDS_P2;PMS_P1;PMS_P2;Temp;Humidity;BMP_temperature;BMP_pressure;BME280_temperature;BME280_humidity;BME280_pressure;Samples;Min_cycle;Max_cycle;Signal;HPM_P1;HPM_P2
2022/04/11 00:00:32;;;;;;;9.50;4.60;;;153.80;1894.40;;;;;;4864003;29;20025;-63
2022/04/11 00:02:57;;;;;;;12.93;6.13;;;153.80;1868.80;;;;;;4864052;29;20060;-63
2022/04/11 00:05:23;;;;;;;8.77;4.93;;;153.70;1894.40;;;;;;4864160;29;20078;-63
2022/04/11 00:07:49;;;;;;;9.10;4.65;;;153.70;1894.40;;;;;;4863661;29;20060;-63
2022/04/11 00:10:15;;;;;;;12.05;5.32;;;153.70;1894.40;;;;;;4863961;29;20030;-63
2022/04/11 00:12:41;;;;;;;9.32;5.50;;;153.60;1920.00;;;;;;4863684;29;20460;-63
2022/04/11 00:15:08;;;;;;;7.93;5.05;;;153.60;1894.40;;;;;;4863762;29;20062;-64
2022/04/11 00:17:34;;;;;;;7.25;4.25;;;128.90;1920.00;;;;;;4863330;29;20057;-63
2022/04/11 00:20:00;;;;;;;8.57;5.03;;;153.60;1894.40;;;;;;4863755;29;20038;-63
2022/04/11 00:22:25;;;;;;;7.40;5.03;;;128.90;1920.00;;;;;;4863566;29;20365;-64
2022/04/11 00:24:52;;;;;;;7.97;4.28;;;128.90;1920.00;;;;;;4863782;29;20472;-63
2022/04/11 00:27:18;;;;;;;8.48;5.10;;;128.90;1920.00;;;;;;4846634;29;20045;-63
2022/04/11 00:29:43;;;;;;;8.73;4.57;;;128.90;1920.00;;;;;;4863083;29;20077;-63
2022/04/11 00:32:09;;;;;;;8.02;4.32;;;128.90;1920.00;;;;;;4863565;29;20069;-64
2022/04/11 00:34:35;;;;;;;8.23;4.90;;;128.90;1945.60;;;;;;4863576;29;20183;-64
2022/04/11 00:37:01;;;;;;;6.32;4.45;;;128.90;1920.00;;;;;;4863452;29;20101;-63
2022/04/11 00:39:27;;;;;;;12.57;5.88;;;153.60;1894.40;;;;;;4863178;29;20048;-63
2022/04/11 00:41:52;;;;;;;40.47;21.17;;;153.60;1920.00;;;;;;4863554;29;20117;-64
2022/04/11 00:44:18;;;;;;;107.38;47.97;;;128.90;1894.40;;;;;;4863340;29;20056;-63
2022/04/11 00:46:44;;;;;;;51.70;23.83;;;128.90;1920.00;;;;;;4863452;29;20035;-63
2022/04/11 00:49:10;;;;;;;150.98;62.55;;;128.80;1920.00;;;;;;4863042;29;20033;-63
2022/04/11 00:51:36;;;;;;;136.82;55.83;;;128.80;1894.40;;;;;;4862603;29;20532;-63
2022/04/11 00:54:03;;;;;;;132.52;55.08;;;128.60;1945.60;;;;;;4863029;29;20044;-63
2022/04/11 00:56:29;;;;;;;110.95;49.40;;;128.70;1920.00;;;;;;4862626;29;20034;-63
2022/04/11 00:58:58;;;;;;;36.38;17.65;;;128.70;1971.20;;;;;;4862967;29;20033;-63
2022/04/11 01:01:24;;;;;;;229.43;100.10;;;128.50;1971.20;;;;;;4862968;29;20129;-64
2022/04/11 01:03:51;;;;;;;73.40;33.92;;;128.60;1945.60;;;;;;4863116;29;20057;-63
2022/04/11 01:06:16;;;;;;;91.10;40.20;;;128.40;1971.20;;;;;;4862888;29;20532;-63
2022/04/11 01:08:42;;;;;;;83.97;36.35;;;128.60;1945.60;;;;;;4862697;29;20116;-63
2022/04/11 01:11:08;;;;;;;102.10;40.42;;;128.50;1971.20;;;;;;4862648;29;20061;-63
2022/04/11 01:13:34;;;;;;;93.28;37.50;;;128.50;1971.20;;;;;;4862723;29;20065;-63
2022/04/11 01:16:03;;;;;;;77.35;33.25;;;128.60;1945.60;;;;;;4845327;29;20132;-63
2022/04/11 01:18:34;;;;;;;182.82;72.22;;;128.50;1996.80;;;;;;4862725;29;20049;-64
2022/04/11 01:21:00;;;;;;;76.57;31.98;;;128.60;1945.60;;;;;;4862098;29;20060;-63
2022/04/11 01:23:25;;;;;;;96.00;39.53;;;128.50;1996.80;;;;;;4862712;29;20475;-63
2022/04/11 01:25:52;;;;;;;219.05;84.32;;;128.50;1971.20;;;;;;4862562;29;20036;-63
2022/04/11 01:28:20;;;;;;;206.02;80.80;;;128.60;1945.60;;;;;;4862360;29;20108;-63
2022/04/11 01:30:46;;;;;;;95.78;41.40;;;128.50;1971.20;;;;;;4862342;29;20057;-63
2022/04/11 01:33:25;;;;;;;78.35;35.17;;;128.40;1971.20;;;;;;4862489;29;20554;-63
2022/04/11 01:35:50;;;;;;;42.20;18.45;;;128.40;1971.20;;;;;;4862344;29;20081;-63
2022/04/11 01:38:17;;;;;;;38.53;16.30;;;128.50;1971.20;;;;;;4862244;29;20037;-63
2022/04/11 01:40:50;;;;;;;64.32;29.88;;;128.30;1996.80;;;;;;4862250;29;20036;-64
2022/04/11 01:43:16;;;;;;;64.95;30.20;;;128.30;1971.20;;;;;;4862073;29;20030;-63
2022/04/11 01:45:42;;;;;;;57.60;26.30;;;128.10;1996.80;;;;;;4862304;29;20029;-63
2022/04/11 01:48:08;;;;;;;66.32;29.58;;;128.20;1996.80;;;;;;4862154;29;20060;-63
2022/04/11 01:50:33;;;;;;;58.90;27.70;;;128.20;1996.80;;;;;;4861725;29;20396;-63
2022/04/11 01:53:16;;;;;;;62.25;27.40;;;128.10;1996.80;;;;;;4861687;29;20033;-63
2022/04/11 01:55:42;;;;;;;59.35;27.02;;;128.10;1996.80;;;;;;4861917;29;20464;-63
2022/04/11 01:58:09;;;;;;;76.60;35.40;;;128.10;1996.80;;;;;;4861536;29;20480;-63
2022/04/11 02:00:36;;;;;;;93.85;40.67;;;128.10;1996.80;;;;;;4862232;29;20057;-63
2022/04/11 02:03:03;;;;;;;79.32;37.53;;;128.10;1996.80;;;;;;4861449;29;20036;-63
2022/04/11 02:05:29;;;;;;;37.53;17.02;;;128.10;1996.80;;;;;;4862041;29;20025;-63
2022/04/11 02:07:56;;;;;;;60.53;26.55;;;128.00;1996.80;;;;;;4861923;29;20103;-63
2022/04/11 02:10:22;;;;;;;42.47;20.65;;;128.00;1996.80;;;;;;4861984;29;20025;-63
2022/04/11 02:12:48;;;;;;;79.97;36.35;;;128.00;1996.80;;;;;;4861604;29;20388;-63
2022/04/11 02:15:14;;;;;;;145.30;53.53;;;128.00;1996.80;;;;;;4861798;29;20121;-63
2022/04/11 02:17:40;;;;;;;105.78;37.80;;;103.30;1971.20;;;;;;4861501;29;20052;-63
2022/04/11 02:20:07;;;;;;;119.30;45.45;;;128.00;1996.80;;;;;;4861562;29;20113;-63
2022/04/11 02:22:51;;;;;;;121.32;45.22;;;128.00;1996.80;;;;;;4861748;29;20120;-63
2022/04/11 02:25:19;;;;;;;109.22;42.88;;;128.10;1996.80;;;;;;4861650;29;20039;-63
2022/04/11 02:27:45;;;;;;;78.28;34.33;;;128.00;1996.80;;;;;;4861361;29;20029;-63
2022/04/11 02:30:13;;;;;;;120.30;48.88;;;128.00;1996.80;;;;;;4861135;29;20046;-63
2022/04/11 02:32:39;;;;;;;104.20;41.85;;;128.10;1996.80;;;;;;4860751;29;20039;-63
2022/04/11 02:35:06;;;;;;;49.75;21.85;;;128.10;1971.20;;;;;;4861403;29;20108;-63
2022/04/11 02:37:33;;;;;;;98.72;42.38;;;128.10;1996.80;;;;;;4861281;29;20041;-63
2022/04/11 02:39:59;;;;;;;33.78;15.82;;;128.00;1996.80;;;;;;4861239;29;20025;-63
2022/04/11 02:42:26;;;;;;;95.10;43.13;;;103.30;1971.20;;;;;;4861503;29;20169;-63
2022/04/11 02:44:52;;;;;;;63.97;29.08;;;103.30;1996.80;;;;;;4861281;29;20480;-63
2022/04/11 02:47:18;;;;;;;37.20;18.02;;;103.20;1996.80;;;;;;4861378;29;20370;-62
2022/04/11 02:49:44;;;;;;;50.85;26.48;;;103.20;1996.80;;;;;;4861513;29;20037;-63
2022/04/11 02:52:10;;;;;;;23.70;13.25;;;103.10;1996.80;;;;;;4861285;29;20026;-63
2022/04/11 02:54:37;;;;;;;37.53;20.15;;;103.10;1996.80;;;;;;4861331;29;20032;-63
2022/04/11 02:57:03;;;;;;;34.58;19.77;;;103.00;1996.80;;;;;;4861271;29;20409;-63
2022/04/11 02:59:29;;;;;;;30.00;18.83;;;103.00;2022.40;;;;;;4861139;29;20041;-63
2022/04/11 03:01:56;;;;;;;30.20;19.63;;;102.90;2022.40;;;;;;4861392;29;20028;-63
2022/04/11 03:04:22;;;;;;;22.77;15.85;;;102.90;2022.40;;;;;;4861023;29;20062;-64
2022/04/11 03:06:47;;;;;;;34.67;21.63;;;102.90;2022.40;;;;;;4861149;29;20034;-63
2022/04/11 03:09:13;;;;;;;22.02;14.60;;;103.00;1996.80;;;;;;4861312;29;20686;-63
2022/04/11 03:11:39;;;;;;;23.88;15.50;;;102.90;2048.00;;;;;;4861165;29;20037;-63
2022/04/11 03:14:05;;;;;;;11.98;8.10;;;103.00;1996.80;;;;;;4861062;29;20433;-63
2022/04/11 03:16:31;;;;;;;8.40;5.35;;;102.90;2048.00;;;;;;4860884;29;20029;-63
2022/04/11 03:18:57;;;;;;;12.18;7.80;;;102.90;2048.00;;;;;;4860962;29;20480;-63
2022/04/11 03:21:23;;;;;;;65.22;29.15;;;103.00;1996.80;;;;;;4860958;29;20468;-63
2022/04/11 03:23:49;;;;;;;70.28;32.40;;;102.90;2022.40;;;;;;4861092;29;20049;-63
2022/04/11 03:26:15;;;;;;;47.65;22.40;;;103.00;2022.40;;;;;;4860844;29;20484;-63
2022/04/11 03:28:40;;;;;;;68.25;30.38;;;103.10;1971.20;;;;;;4860905;29;20040;-63
2022/04/11 03:31:06;;;;;;;23.38;12.65;;;103.00;2022.40;;;;;;4860657;29;20377;-63
2022/04/11 03:33:32;;;;;;;27.50;16.13;;;103.00;1996.80;;;;;;4861081;29;20094;-63
2022/04/11 03:35:58;;;;;;;29.80;17.45;;;103.00;2022.40;;;;;;4860857;29;20057;-63
2022/04/11 03:38:24;;;;;;;33.08;18.10;;;102.90;2022.40;;;;;;4860766;29;20555;-63
2022/04/11 03:40:49;;;;;;;42.42;23.52;;;103.00;1996.80;;;;;;4860867;29;20029;-63
2022/04/11 03:43:15;;;;;;;32.88;17.73;;;102.90;2022.40;;;;;;4862575;29;20066;-63
2022/04/11 03:45:41;;;;;;;39.92;19.73;;;102.90;2048.00;;;;;;4864362;29;20034;-63
2022/04/11 03:48:07;;;;;;;28.83;14.40;;;102.90;1996.80;;;;;;4864363;29;20147;-63
2022/04/11 03:50:32;;;;;;;23.70;12.73;;;102.90;2022.40;;;;;;4864143;29;20025;-63
2022/04/11 03:52:58;;;;;;;41.95;18.75;;;102.80;2048.00;;;;;;4864252;29;20029;-63
2022/04/11 03:55:24;;;;;;;45.60;18.95;;;102.80;2022.40;;;;;;4864152;29;20059;-63
2022/04/11 03:57:50;;;;;;;69.65;27.80;;;102.80;2048.00;;;;;;4864099;29;20045;-63
2022/04/11 04:00:17;;;;;;;68.75;28.65;;;102.80;2048.00;;;;;;4864149;29;20029;-63
2022/04/11 04:02:46;;;;;;;63.58;29.50;;;102.80;2048.00;;;;;;4863904;29;20029;-62
2022/04/11 04:05:11;;;;;;;43.20;19.73;;;102.80;2022.40;;;;;;4851357;29;20166;-61
2022/04/11 04:07:37;;;;;;;62.80;40.70;;;102.70;2073.60;;;;;;4848180;29;20104;-62
2022/04/11 04:10:04;;;;;;;93.90;74.97;;;102.90;2124.80;;;;;;4853029;29;20037;-62
2022/04/11 04:12:30;;;;;;;31.17;28.08;;;103.00;2022.40;;;;;;4850918;29;20168;-62
2022/04/11 04:14:56;;;;;;;11.35;9.90;;;102.80;2048.00;;;;;;4853921;29;20106;-62
2022/04/11 04:17:22;;;;;;;10.48;9.48;;;102.90;2022.40;;;;;;4854695;29;20030;-63
2022/04/11 04:19:48;;;;;;;14.70;4.90;;;102.90;1996.80;;;;;;4852927;29;20037;-62
2022/04/11 04:22:14;;;;;;;7.93;4.45;;;102.70;2073.60;;;;;;4854225;29;20025;-62
2022/04/11 04:24:40;;;;;;;7.75;5.22;;;102.70;2048.00;;;;;;4854579;29;20038;-62
2022/04/11 04:27:07;;;;;;;6.53;4.70;;;102.80;2022.40;;;;;;4852733;29;20026;-62
2022/04/11 04:29:34;;;;;;;8.73;5.55;;;102.60;2073.60;;;;;;4857821;29;20018;-62
2022/04/11 04:32:00;;;;;;;10.52;6.55;;;102.60;2048.00;;;;;;4863527;29;20041;-62
2022/04/11 04:34:26;;;;;;;11.50;6.07;;;102.60;2073.60;;;;;;4863436;29;20155;-62
2022/04/11 04:36:53;;;;;;;10.35;6.85;;;102.40;2176.00;;;;;;4861420;29;20041;-62
2022/04/11 04:39:19;;;;;;;6.45;5.18;;;102.60;2073.60;;;;;;4836373;29;20034;-63
2022/04/11 04:41:44;;;;;;;10.23;5.53;;;102.40;2150.40;;;;;;4844784;29;20030;-62
2022/04/11 04:44:10;;;;;;;8.15;4.75;;;77.70;2150.40;;;;;;4847463;29;20026;-62
2022/04/11 04:46:36;;;;;;;6.68;4.13;;;77.60;2124.80;;;;;;4857597;29;20029;-62
2022/04/11 04:49:04;;;;;;;15.40;7.63;;;77.50;2227.20;;;;;;4862853;29;20057;-63
2022/04/11 04:51:30;;;;;;;7.43;4.03;;;77.60;2201.60;;;;;;4861374;29;20034;-63
2022/04/11 04:53:56;;;;;;;6.15;3.45;;;77.70;2150.40;;;;;;4860628;29;20025;-63
2022/04/11 04:56:22;;;;;;;8.75;3.83;;;77.60;2227.20;;;;;;4862470;29;20089;-62
2022/04/11 04:58:48;;;;;;;19.60;5.40;;;102.40;2176.00;;;;;;4862810;29;20042;-62
2022/04/11 05:01:14;;;;;;;19.40;6.80;;;77.70;2176.00;;;;;;4862623;29;20384;-63
2022/04/11 05:03:41;;;;;;;27.20;9.18;;;77.70;2176.00;;;;;;4862868;29;20472;-63
2022/04/11 05:06:07;;;;;;;52.35;16.95;;;102.40;2176.00;;;;;;4862591;29;20070;-63
2022/04/11 05:08:34;;;;;;;20.83;10.43;;;102.40;2201.60;;;;;;4862597;29;20085;-63
2022/04/11 05:11:00;;;;;;;51.17;9.23;;;102.40;2227.20;;;;;;4862880;29;20033;-63
2022/04/11 05:13:26;;;;;;;40.65;6.97;;;102.50;2176.00;;;;;;4862645;29;20085;-63
2022/04/11 05:15:52;;;;;;;8.38;4.63;;;102.50;2227.20;;;;;;4862539;29;20030;-63
2022/04/11 05:18:17;;;;;;;10.60;5.85;;;102.50;2227.20;;;;;;4862322;29;20067;-63
2022/04/11 05:20:43;;;;;;;9.48;5.38;;;102.70;2176.00;;;;;;4862560;29;20112;-63
2022/04/11 05:23:09;;;;;;;8.30;5.45;;;102.70;2227.20;;;;;;4862589;29;20040;-64
2022/04/11 05:25:35;;;;;;;10.75;5.50;;;102.60;2227.20;;;;;;4862717;29;20028;-63
2022/04/11 05:28:00;;;;;;;5.82;4.38;;;102.90;2150.40;;;;;;4862652;29;20021;-63
2022/04/11 05:30:26;;;;;;;7.28;4.35;;;102.90;2176.00;;;;;;4862191;29;20057;-63
2022/04/11 05:32:52;;;;;;;9.00;5.53;;;103.00;2150.40;;;;;;4862359;29;20032;-63
2022/04/11 05:35:18;;;;;;;7.15;4.35;;;103.10;2099.20;;;;;;4862134;29;20059;-63
2022/04/11 05:37:43;;;;;;;8.88;4.82;;;103.10;2150.40;;;;;;4862010;29;20128;-64
2022/04/11 05:40:11;;;;;;;12.50;5.40;;;103.20;2124.80;;;;;;4862390;29;20057;-63
2022/04/11 05:42:39;;;;;;;28.02;7.13;;;103.30;2073.60;;;;;;4862391;29;20033;-63
2022/04/11 05:45:06;;;;;;;10.73;5.35;;;103.30;2124.80;;;;;;4862021;29;20033;-63
2022/04/11 05:47:32;;;;;;;8.45;4.93;;;128.00;2124.80;;;;;;4862182;29;20041;-63
2022/04/11 05:49:58;;;;;;;10.18;5.20;;;128.20;2099.20;;;;;;4862556;29;20451;-64
2022/04/11 05:52:24;;;;;;;25.23;7.20;;;128.30;2124.80;;;;;;4861835;29;20033;-64
2022/04/11 05:54:49;;;;;;;15.10;6.28;;;128.50;2073.60;;;;;;4862171;29;20030;-63
2022/04/11 05:57:15;;;;;;;136.25;75.45;;;128.50;2048.00;;;;;;4854977;29;20499;-62
2022/04/11 05:59:41;;;;;;;279.00;124.80;;;128.60;2048.00;;;;;;4852182;29;20051;-63
2022/04/11 06:02:10;;;;;;;177.45;75.63;;;128.70;2048.00;;;;;;4850959;29;20481;-62
2022/04/11 06:04:37;;;;;;;45.03;29.85;;;128.90;1996.80;;;;;;4850709;29;20033;-63
2022/04/11 06:07:03;;;;;;;15.65;8.38;;;153.60;1996.80;;;;;;4852055;29;20026;-62
2022/04/11 06:09:30;;;;;;;7.57;4.18;;;153.70;1996.80;;;;;;4851933;29;20094;-64
2022/04/11 06:11:56;;;;;;;8.60;5.15;;;153.80;1945.60;;;;;;4846865;29;20488;-62
2022/04/11 06:14:22;;;;;;;7.03;4.47;;;153.90;1971.20;;;;;;4853057;29;20357;-62
2022/04/11 06:16:48;;;;;;;9.32;4.85;;;154.00;1945.60;;;;;;4861020;29;20036;-62
2022/04/11 06:19:14;;;;;;;10.18;5.13;;;154.20;1920.00;;;;;;4861512;29;20041;-63
2022/04/11 06:21:40;;;;;;;6.80;4.07;;;154.40;1920.00;;;;;;4861987;29;20042;-62
2022/04/11 06:24:06;;;;;;;9.43;4.43;;;154.50;1920.00;;;;;;4855165;29;20034;-62
2022/04/11 06:26:32;;;;;;;9.48;4.70;;;179.20;1894.40;;;;;;4850302;29;20033;-62
2022/04/11 06:28:58;;;;;;;6.78;3.75;;;179.30;1868.80;;;;;;4861437;29;20384;-62
2022/04/11 06:31:23;;;;;;;8.63;4.25;;;179.30;1868.80;;;;;;4845040;29;20579;-65
2022/04/11 06:33:49;;;;;;;7.30;3.90;;;179.40;1843.20;;;;;;4842728;29;20112;-64
2022/04/11 06:36:15;;;;;;;7.13;4.15;;;179.50;1843.20;;;;;;4842915;29;20430;-63
2022/04/11 06:38:40;;;;;;;6.07;4.03;;;179.60;1817.60;;;;;;4843364;29;20385;-63
2022/04/11 06:41:07;;;;;;;6.82;3.95;;;179.70;1792.00;;;;;;4843140;29;20033;-63
2022/04/11 06:43:33;;;;;;;6.97;4.07;;;179.80;1792.00;;;;;;4842905;29;20040;-63
2022/04/11 06:45:58;;;;;;;8.20;4.45;;;180.00;1792.00;;;;;;4843116;29;20113;-64
2022/04/11 06:48:25;;;;;;;9.32;4.53;;;180.10;1766.40;;;;;;4843455;29;20438;-63
2022/04/11 06:50:52;;;;;;;7.00;4.03;;;204.80;1740.80;;;;;;4843373;29;20030;-63
2022/04/11 06:53:19;;;;;;;6.15;3.20;;;205.00;1740.80;;;;;;4842756;29;20378;-63
2022/04/11 06:55:47;;;;;;;5.97;3.33;;;205.10;1715.20;;;;;;4842931;29;20034;-63
2022/04/11 06:58:14;;;;;;;12.82;3.97;;;205.30;1689.60;;;;;;4842579;29;20038;-63
2022/04/11 07:00:40;;;;;;;9.85;4.18;;;205.50;1689.60;;;;;;4843014;29;20037;-62
2022/04/11 07:03:06;;;;;;;9.02;5.07;;;205.70;1664.00;;;;;;4843581;29;20453;-63
2022/04/11 07:05:32;;;;;;;8.30;4.53;;;230.40;1638.40;;;;;;4842921;29;20026;-63
2022/04/11 07:07:58;;;;;;;10.13;4.93;;;230.60;1612.80;;;;;;4843119;29;20030;-63
2022/04/11 07:10:23;;;;;;;6.75;3.92;;;230.80;1587.20;;;;;;4842805;29;20082;-64
2022/04/11 07:12:49;;;;;;;13.70;4.20;;;230.90;1561.60;;;;;;4842969;29;20026;-63
2022/04/11 07:15:15;;;;;;;7.85;4.43;;;231.00;1561.60;;;;;;4842835;29;20033;-63
2022/04/11 07:17:42;;;;;;;7.65;3.60;;;231.10;1536.00;;;;;;4843699;29;20030;-63
2022/04/11 07:20:08;;;;;;;9.90;3.75;;;231.20;1510.40;;;;;;4846523;29;20476;-64
2022/04/11 07:22:34;;;;;;;5.93;3.50;;;231.30;1510.40;;;;;;4845900;29;20033;-63
2022/04/11 07:25:03;;;;;;;46.45;8.05;;;256.00;1484.80;;;;;;4845893;29;20029;-64
2022/04/11 07:27:29;;;;;;;36.33;5.32;;;256.20;1484.80;;;;;;4846389;29;20038;-64
2022/04/11 07:29:54;;;;;;;142.50;14.30;;;256.40;1459.20;;;;;;4846110;29;20098;-63
2022/04/11 07:32:20;;;;;;;28.75;5.53;;;256.60;1459.20;;;;;;4846267;29;20094;-63
2022/04/11 07:34:47;;;;;;;7.68;3.45;;;256.90;1459.20;;;;;;4846238;29;20089;-64
2022/04/11 07:37:13;;;;;;;4.40;3.17;;;256.90;1433.60;;;;;;4846299;29;20049;-63
2022/04/11 07:39:39;;;;;;;12.73;4.18;;;281.80;1433.60;;;;;;4846046;29;20394;-63
2022/04/11 07:42:05;;;;;;;6.90;4.03;;;282.00;1433.60;;;;;;4845940;29;20026;-63
2022/04/11 07:44:30;;;;;;;9.57;3.85;;;282.10;1408.00;;;;;;4845843;29;20026;-63
2022/04/11 07:46:56;;;;;;;6.03;3.70;;;282.30;1356.80;;;;;;4845602;29;20185;-62
2022/04/11 07:49:22;;;;;;;9.15;3.55;;;282.40;1356.80;;;;;;4845821;29;20469;-63
2022/04/11 07:51:47;;;;;;;11.73;4.40;;;282.50;1356.80;;;;;;4845735;29;20033;-64
2022/04/11 07:54:14;;;;;;;6.18;3.35;;;307.30;1356.80;;;;;;4845401;29;20030;-64
2022/04/11 07:56:39;;;;;;;6.13;2.97;;;307.40;1331.20;;;;;;4845761;29;20116;-63
2022/04/11 07:59:05;;;;;;;5.32;3.00;;;307.50;1331.20;;;;;;4845550;29;20038;-63
2022/04/11 08:01:31;;;;;;;8.63;3.13;;;307.70;1305.60;;;;;;4845699;29;20077;-63
2022/04/11 08:03:56;;;;;;;6.28;2.80;;;307.80;1280.00;;;;;;4845522;29;20033;-63
2022/04/11 08:06:22;;;;;;;7.78;3.30;;;307.90;1228.80;;;;;;4845740;29;20053;-63
2022/04/11 08:08:48;;;;;;;5.10;2.88;;;307.90;1228.80;;;;;;4845997;29;20030;-63
2022/04/11 08:11:18;;;;;;;5.72;3.33;;;332.80;1228.80;;;;;;4845696;29;20425;-63
2022/04/11 08:13:44;;;;;;;5.63;3.30;;;333.00;1228.80;;;;;;4845482;29;20086;-63
2022/04/11 08:16:12;;;;;;;6.57;3.00;;;332.90;1254.40;;;;;;4845459;29;20037;-64
2022/04/11 08:18:37;;;;;;;5.22;2.92;;;333.00;1254.40;;;;;;4845348;29;20133;-63
2022/04/11 08:21:04;;;;;;;4.68;2.63;;;333.10;1228.80;;;;;;4845318;29;20185;-63
2022/04/11 08:23:30;;;;;;;6.38;4.00;;;333.20;1228.80;;;;;;4845448;29;20049;-63
2022/04/11 08:25:56;;;;;;;9.02;3.53;;;333.30;1228.80;;;;;;4845282;29;20026;-65
2022/04/11 08:28:22;;;;;;;4.45;3.15;;;333.40;1254.40;;;;;;4844901;29;20033;-64
2022/04/11 08:30:49;;;;;;;9.05;3.45;;;333.40;1228.80;;;;;;4843958;29;20046;-63
2022/04/11 08:33:15;;;;;;;7.32;4.35;;;333.30;1228.80;;;;;;4845605;29;20038;-63
2022/04/11 08:35:41;;;;;;;5.30;3.45;;;333.40;1280.00;;;;;;4844918;29;20030;-63
2022/04/11 08:38:07;;;;;;;8.05;3.30;;;333.60;1254.40;;;;;;4844872;29;20166;-64
2022/04/11 08:40:33;;;;;;;8.00;3.63;;;358.40;1228.80;;;;;;4845148;29;20033;-64
2022/04/11 08:42:59;;;;;;;6.47;2.97;;;358.40;1203.20;;;;;;4844716;29;20038;-63
2022/04/11 08:45:27;;;;;;;5.72;2.88;;;358.40;1177.60;;;;;;4844872;29;20373;-63
2022/04/11 08:47:56;;;;;;;6.03;2.97;;;358.60;1177.60;;;;;;4845022;29;20034;-63
2022/04/11 08:50:24;;;;;;;5.90;2.85;;;358.70;1152.00;;;;;;4844792;29;20038;-63
2022/04/11 08:52:52;;;;;;;6.35;2.83;;;358.80;1126.40;;;;;;4844793;29;20511;-63
2022/04/11 08:55:18;;;;;;;6.55;2.25;;;358.80;1100.80;;;;;;4844647;29;20116;-63
2022/04/11 08:57:44;;;;;;;5.50;2.83;;;358.90;1075.20;;;;;;4844778;29;20120;-66
2022/04/11 09:00:11;;;;;;;5.68;2.75;;;359.00;1100.80;;;;;;4844949;29;20495;-63
2022/04/11 09:02:38;;;;;;;4.35;2.47;;;359.10;1100.80;;;;;;4844723;29;20034;-63
2022/04/11 09:05:05;;;;;;;4.72;2.38;;;359.10;1075.20;;;;;;4844321;29;20083;-63
2022/04/11 09:07:55;;;;;;;3.90;2.50;;;359.20;1024.00;;;;;;4844583;29;20026;-63
2022/04/11 09:10:28;;;;;;;7.70;2.67;;;384.00;1075.20;;;;;;4837422;29;20058;-64
2022/04/11 09:12:58;;;;;;;4.60;2.17;;;359.30;1024.00;;;;;;4844430;29;20090;-64
2022/04/11 09:15:26;;;;;;;5.22;3.20;;;359.20;1024.00;;;;;;4844034;29;20034;-63
2022/04/11 09:17:54;;;;;;;9.25;4.88;;;359.30;1049.60;;;;;;4844152;29;20045;-63
2022/04/11 09:20:25;;;;;;;9.70;5.60;;;359.30;1049.60;;;;;;4852977;29;20021;-63
2022/04/11 09:22:51;;;;;;;13.20;9.18;;;384.00;1075.20;;;;;;4848377;29;20065;-63
2022/04/11 09:25:22;;;;;;;12.48;8.95;;;384.10;1049.60;;;;;;4843772;29;20069;-64
2022/04/11 09:28:02;;;;;;;10.00;5.65;;;384.10;1024.00;;;;;;4843684;29;20367;-64
2022/04/11 09:30:31;;;;;;;10.68;2.95;;;384.20;998.40;;;;;;4843652;29;20054;-64
2022/04/11 09:32:56;;;;;;;11.43;3.22;;;384.20;998.40;;;;;;4843972;29;20053;-64
2022/04/11 09:35:27;;;;;;;8.65;3.38;;;384.40;998.40;;;;;;4844303;29;20069;-65
2022/04/11 09:38:07;;;;;;;6.45;2.40;;;384.60;1024.00;;;;;;4843504;29;20057;-64
2022/04/11 09:40:37;;;;;;;4.32;2.45;;;384.70;972.80;;;;;;4843552;29;20030;-63
2022/04/11 09:43:03;;;;;;;5.65;2.80;;;384.70;972.80;;;;;;4843954;29;20038;-64
2022/04/11 09:45:28;;;;;;;4.32;2.50;;;384.80;921.60;;;;;;4843697;29;20105;-63
2022/04/11 09:48:02;;;;;;;7.22;2.90;;;384.80;947.20;;;;;;4843841;29;20033;-64
2022/04/11 09:50:30;;;;;;;4.57;2.33;;;409.70;972.80;;;;;;4842893;29;20071;-64
2022/04/11 09:53:12;;;;;;;5.25;2.85;;;409.80;947.20;;;;;;4844026;29;20030;-64
2022/04/11 09:55:38;;;;;;;15.95;5.40;;;409.80;896.00;;;;;;4855951;29;20036;-63
2022/04/11 09:58:05;;;;;;;12.32;10.48;;;409.80;921.60;;;;;;4854745;29;20044;-63
2022/04/11 10:00:32;;;;;;;7.72;6.03;;;409.90;921.60;;;;;;4851302;29;20026;-63
2022/04/11 10:02:59;;;;;;;10.60;7.22;;;410.00;921.60;;;;;;4850207;29;20477;-65
2022/04/11 10:05:26;;;;;;;47.63;27.02;;;410.00;870.40;;;;;;4848104;29;20022;-62
2022/04/11 10:07:54;;;;;;;29.20;18.08;;;409.70;870.40;;;;;;4851456;29;20029;-63
2022/04/11 10:10:24;;;;;;;23.77;11.82;;;409.80;870.40;;;;;;4851989;29;20085;-62
2022/04/11 10:12:53;;;;;;;16.75;12.20;;;409.60;896.00;;;;;;4845734;29;20060;-60
2022/04/11 10:15:22;;;;;;;17.17;14.02;;;409.60;921.60;;;;;;4850741;29;20025;-65
2022/04/11 10:17:50;;;;;;;20.65;15.60;;;409.70;896.00;;;;;;4857757;29;20049;-66
2022/04/11 10:20:27;;;;;;;10.25;5.28;;;409.70;844.80;;;;;;4849111;29;20028;-68
2022/04/11 10:23:06;;;;;;;17.90;14.80;;;409.80;870.40;;;;;;4861229;29;20062;-67
2022/04/11 10:25:43;;;;;;;7.50;4.35;;;409.90;844.80;;;;;;4861496;29;20511;-67
2022/04/11 10:28:22;;;;;;;8.82;3.90;;;409.80;819.20;;;;;;4861031;29;20022;-64
2022/04/11 10:31:10;;;;;;;22.42;14.93;;;384.90;793.60;;;;;;4840906;29;20069;-65
2022/04/11 10:33:54;;;;;;;14.95;10.15;;;384.70;844.80;;;;;;4831955;29;20489;-67
2022/04/11 10:36:27;;;;;;;7.18;4.82;;;409.60;896.00;;;;;;4833137;29;20026;-63
2022/04/11 10:39:14;;;;;;;3.88;2.70;;;409.90;844.80;;;;;;4832873;29;20061;-65
2022/04/11 10:42:06;;;;;;;9.90;5.22;;;409.80;844.80;;;;;;4833179;29;20022;-64
2022/04/11 10:44:36;;;;;;;21.83;9.50;;;409.70;844.80;;;;;;4831207;29;20484;-68
2022/04/11 10:47:08;;;;;;;21.42;14.90;;;409.80;844.80;;;;;;4832446;29;20058;-66
2022/04/11 10:49:48;;;;;;;13.88;9.73;;;409.90;844.80;;;;;;4833991;29;20095;-64
2022/04/11 10:52:35;;;;;;;15.73;9.43;;;410.20;844.80;;;;;;4831315;29;20027;-65
2022/04/11 10:55:12;;;;;;;17.77;12.82;;;410.10;844.80;;;;;;4832385;29;20034;-66
2022/04/11 10:57:51;;;;;;;12.35;7.80;;;410.10;844.80;;;;;;4827685;29;20044;-67
2022/04/11 11:00:20;;;;;;;12.60;8.95;;;409.70;844.80;;;;;;4829149;29;20037;-68
2022/04/11 11:02:48;;;;;;;13.73;10.43;;;409.90;870.40;;;;;;4835677;29;20026;-64
2022/04/11 11:05:26;;;;;;;6.15;4.30;;;409.90;819.20;;;;;;4833564;29;20037;-64
2022/04/11 11:08:09;;;;;;;8.13;5.88;;;410.00;844.80;;;;;;4825423;29;20031;-63
2022/04/11 11:10:46;;;;;;;6.90;4.40;;;410.10;844.80;;;;;;4831466;29;20053;-65
2022/04/11 11:13:45;;;;;;;5.20;3.10;;;410.30;844.80;;;;;;4833922;29;20426;-63
2022/04/11 11:16:10;;;;;;;8.35;2.67;;;410.40;819.20;;;;;;4833972;29;20384;-65
2022/04/11 11:18:56;;;;;;;2.85;1.58;;;409.90;793.60;;;;;;4832611;29;20117;-68
2022/04/11 11:21:45;;;;;;;6.38;2.53;;;384.70;793.60;;;;;;4795457;29;20458;-67
2022/04/11 11:24:12;;;;;;;5.68;2.70;;;384.40;819.20;;;;;;4793728;29;20083;-64
2022/04/11 11:26:59;;;;;;;4.18;2.60;;;384.00;819.20;;;;;;4793720;29;20122;-64
2022/04/11 11:29:33;;;;;;;20.08;12.50;;;359.30;844.80;;;;;;4793883;29;20108;-64
2022/04/11 11:32:05;;;;;;;82.32;50.70;;;359.10;844.80;;;;;;4793289;29;20106;-68
2022/04/11 11:34:33;;;;;;;35.13;26.17;;;359.00;819.20;;;;;;4794886;29;20514;-68
2022/04/11 11:37:06;;;;;;;11.55;3.83;;;359.10;870.40;;;;;;4793401;29;20051;-67
2022/04/11 11:39:36;;;;;;;11.32;10.13;;;359.30;819.20;;;;;;4794085;29;20050;-66
2022/04/11 11:42:22;;;;;;;58.95;48.67;;;359.30;870.40;;;;;;4791097;29;20122;-67
2022/04/11 11:44:49;;;;;;;28.60;18.50;;;384.10;870.40;;;;;;4792259;29;20498;-67
2022/04/11 11:47:16;;;;;;;7.90;6.82;;;384.30;844.80;;;;;;4798300;29;20059;-64
2022/04/11 11:49:44;;;;;;;8.63;7.10;;;384.10;768.00;;;;;;4796370;29;20037;-65
2022/04/11 11:52:20;;;;;;;19.88;10.23;;;384.00;819.20;;;;;;4796173;29;20517;-66
2022/04/11 11:54:48;;;;;;;10.82;5.25;;;359.30;819.20;;;;;;4803952;29;20497;-67
2022/04/11 11:57:16;;;;;;;8.13;5.32;;;384.00;819.20;;;;;;4799497;29;20066;-65
2022/04/11 11:59:55;;;;;;;4.82;3.08;;;384.10;844.80;;;;;;4830792;29;20030;-67
2022/04/11 12:05:24;;;;;;;16.73;9.05;;;384.10;819.20;;;;;;4828112;29;20095;-68
2022/04/11 12:08:13;;;;;;;5.57;3.67;;;384.10;819.20;;;;;;4827092;29;20039;-65
2022/04/11 12:10:46;;;;;;;9.20;5.43;;;384.10;819.20;;;;;;4827515;29;20042;-67
2022/04/11 12:13:27;;;;;;;11.23;6.95;;;359.20;819.20;;;;;;4835540;29;20044;-65
2022/04/11 12:15:53;;;;;;;7.63;5.53;;;384.00;819.20;;;;;;4835697;29;20485;-68
2022/04/11 12:18:19;;;;;;;6.47;4.72;;;384.20;819.20;;;;;;4834442;29;20034;-67